createdAt,value
2023-01-19T00:01:46.888Z,13.63
2023-01-19T00:04:16.263Z,11.82
2023-01-19T00:06:46.722Z,13.43
2023-01-19T00:09:16.104Z,12.77
2023-01-19T00:11:45.166Z,14.50
2023-01-19T00:14:14.867Z,12.20
2023-01-19T00:16:43.850Z,11.65
2023-01-19T00:19:13.312Z,15.13
2023-01-19T00:21:42.417Z,10.45
2023-01-19T00:24:14.688Z,11.60
2023-01-19T00:26:43.994Z,12.65
2023-01-19T00:29:14.511Z,12.85
2023-01-19T00:31:44.684Z,13.25
2023-01-19T00:34:14.340Z,14.40
2023-01-19T00:36:43.973Z,14.75
2023-01-19T00:39:14.809Z,13.43
2023-01-19T00:42:01.808Z,14.02
2023-01-19T00:44:31.285Z,15.02
2023-01-19T00:47:01.101Z,11.97
2023-01-19T00:49:30.710Z,13.18
2023-01-19T00:51:59.752Z,12.82
2023-01-19T00:54:30.562Z,12.43
2023-01-19T00:56:59.648Z,12.32
2023-01-19T00:59:28.903Z,13.70
2023-01-19T01:01:58.346Z,14.35
2023-01-19T01:04:27.892Z,12.88
2023-01-19T01:06:57.189Z,14.27
2023-01-19T01:09:26.631Z,14.93
2023-01-19T01:11:57.893Z,16.15
2023-01-19T01:14:29.317Z,13.43
2023-01-19T01:16:58.649Z,14.55
2023-01-19T01:19:28.079Z,14.95
2023-01-19T01:21:57.278Z,13.68
2023-01-19T01:24:26.726Z,11.85
2023-01-19T01:26:57.328Z,13.80
2023-01-19T01:29:26.906Z,14.60
2023-01-19T01:31:55.976Z,13.30
2023-01-19T01:34:25.469Z,13.32
2023-01-19T01:36:54.615Z,12.32
2023-01-19T01:39:24.063Z,12.57
2023-01-19T01:41:53.144Z,11.20
2023-01-19T01:44:53.047Z,12.57
2023-01-19T01:47:28.225Z,11.45
2023-01-19T01:50:03.322Z,12.73
2023-01-19T01:52:36.600Z,10.07
2023-01-19T01:55:08.186Z,12.02
2023-01-19T01:57:40.555Z,12.02
2023-01-19T02:00:13.242Z,13.40
2023-01-19T02:02:51.352Z,11.05
2023-01-19T02:05:25.565Z,13.07
2023-01-19T02:08:18.342Z,10.20
2023-01-19T02:11:06.492Z,12.30
2023-01-19T02:13:39.892Z,12.50
2023-01-19T02:16:12.950Z,11.77
2023-01-19T02:18:43.076Z,11.23
2023-01-19T02:21:18.984Z,11.88
2023-01-19T02:23:51.898Z,10.85
2023-01-19T02:26:24.003Z,13.25
2023-01-19T02:28:58.529Z,12.90
2023-01-19T02:31:29.786Z,12.23
2023-01-19T02:34:00.593Z,13.02
2023-01-19T02:36:36.836Z,13.02
2023-01-19T02:39:09.681Z,13.05
2023-01-19T02:41:44.288Z,13.23
2023-01-19T02:44:16.012Z,12.50
2023-01-19T02:46:45.835Z,12.35
2023-01-19T02:49:14.917Z,11.90
2023-01-19T02:51:45.643Z,12.65
2023-01-19T02:54:37.642Z,13.35
2023-01-19T02:57:25.919Z,10.63
2023-01-19T03:00:08.094Z,10.70
2023-01-19T03:02:51.102Z,9.57
2023-01-19T03:05:30.526Z,10.50
2023-01-19T03:08:09.672Z,10.52
2023-01-19T03:10:49.299Z,10.45
2023-01-19T03:15:55.760Z,9.50
2023-01-19T03:18:29.040Z,8.98
2023-01-19T03:21:01.698Z,8.48
2023-01-19T03:23:33.310Z,9.55
2023-01-19T03:26:06.333Z,8.95
2023-01-19T03:28:40.138Z,8.88
2023-01-19T03:31:23.905Z,8.55
2023-01-19T03:33:57.702Z,8.02
2023-01-19T03:36:31.983Z,8.68
2023-01-19T03:39:03.591Z,7.80
2023-01-19T03:41:36.042Z,9.35
2023-01-19T03:44:06.964Z,9.48
2023-01-19T03:46:36.609Z,8.93
2023-01-19T03:49:07.703Z,8.20
2023-01-19T03:51:39.054Z,8.60
2023-01-19T03:54:10.820Z,7.38
2023-01-19T03:56:41.430Z,7.80
2023-01-19T03:59:10.898Z,7.63
2023-01-19T04:01:39.982Z,8.50
2023-01-19T04:04:09.336Z,8.60
2023-01-19T04:06:38.484Z,7.78
2023-01-19T04:09:08.201Z,7.20
2023-01-19T04:11:37.425Z,7.32
2023-01-19T04:14:08.258Z,7.43
2023-01-19T04:16:37.715Z,7.97
2023-01-19T04:19:07.073Z,7.53
2023-01-19T04:21:36.363Z,8.60
2023-01-19T04:24:06.032Z,7.50
2023-01-19T04:26:35.282Z,8.82
2023-01-19T04:29:04.595Z,8.07
2023-01-19T04:31:35.721Z,8.77
2023-01-19T04:34:05.590Z,8.18
2023-01-19T04:36:35.368Z,9.18
2023-01-19T04:39:05.147Z,7.80
2023-01-19T04:41:34.445Z,7.15
2023-01-19T04:44:04.328Z,8.15
2023-01-19T04:46:35.088Z,9.60
2023-01-19T04:49:04.644Z,7.90
2023-01-19T04:51:34.461Z,7.67
2023-01-19T04:54:04.069Z,9.25
2023-01-19T04:56:33.176Z,9.27
2023-01-19T04:59:03.012Z,7.68
2023-01-19T05:01:32.595Z,8.45
2023-01-19T05:04:06.550Z,8.27
2023-01-19T05:06:37.398Z,9.98
2023-01-19T05:09:08.081Z,8.73
2023-01-19T05:11:37.350Z,10.02
2023-01-19T05:14:06.908Z,9.00
2023-01-19T05:16:36.093Z,9.43
2023-01-19T05:19:06.857Z,8.80
2023-01-19T05:21:36.232Z,8.43
2023-01-19T05:24:05.819Z,8.27
2023-01-19T05:26:35.314Z,10.48
2023-01-19T05:29:04.708Z,8.73
2023-01-19T05:31:33.845Z,8.33
2023-01-19T05:34:03.350Z,7.25
2023-01-19T05:36:34.008Z,8.77
2023-01-19T05:39:03.457Z,8.48
2023-01-19T05:41:32.505Z,8.07
2023-01-19T05:44:01.986Z,8.48
2023-01-19T05:46:31.249Z,7.63
2023-01-19T05:51:35.327Z,7.72
2023-01-19T05:54:05.209Z,9.70
2023-01-19T05:56:35.545Z,9.40
2023-01-19T05:59:04.892Z,13.35
2023-01-19T06:01:34.828Z,16.67
2023-01-19T06:04:04.222Z,17.63
2023-01-19T06:06:34.966Z,19.85
2023-01-19T06:09:04.535Z,12.40
2023-01-19T06:11:33.572Z,11.52
2023-01-19T06:14:03.161Z,10.93
2023-01-19T06:16:32.469Z,10.88
2023-01-19T06:19:01.882Z,8.15
2023-01-19T06:21:33.081Z,10.40
2023-01-19T06:24:03.595Z,9.32
2023-01-19T06:26:32.996Z,8.85
2023-01-19T06:29:02.353Z,10.60
2023-01-19T06:31:31.660Z,9.75
2023-01-19T06:34:01.064Z,10.27
2023-01-19T06:36:30.239Z,9.60
2023-01-19T06:39:03.562Z,10.35
2023-01-19T06:41:33.255Z,10.43
2023-01-19T06:44:02.911Z,11.18
2023-01-19T06:46:32.465Z,9.20
2023-01-19T06:49:02.119Z,9.93
2023-01-19T06:51:31.310Z,9.88
2023-01-19T06:54:02.573Z,10.25
2023-01-19T06:56:31.863Z,12.05
2023-01-19T06:59:01.229Z,15.30
2023-01-19T07:01:30.480Z,15.68
2023-01-19T07:03:59.930Z,13.43
2023-01-19T07:06:29.453Z,13.45
2023-01-19T07:09:00.278Z,14.05
2023-01-19T07:11:33.224Z,14.32
2023-01-19T07:14:04.014Z,14.50
2023-01-19T07:16:34.162Z,14.38
2023-01-19T07:19:03.551Z,14.82
2023-01-19T07:21:32.759Z,15.37
2023-01-19T07:24:02.323Z,15.60
2023-01-19T07:26:32.907Z,15.07
2023-01-19T07:29:02.399Z,17.40
2023-01-19T07:31:31.619Z,15.33
2023-01-19T07:34:01.442Z,16.30
2023-01-19T07:36:30.509Z,16.55
2023-01-19T07:38:59.949Z,19.52
2023-01-19T07:41:29.134Z,17.30
2023-01-19T07:44:00.035Z,17.10
2023-01-19T07:46:29.228Z,16.90
2023-01-19T07:48:58.801Z,18.17
2023-01-19T07:51:28.343Z,17.65
2023-01-19T07:53:58.197Z,15.70
2023-01-19T07:56:27.896Z,16.58
2023-01-19T08:01:29.625Z,15.88
2023-01-19T08:03:59.196Z,17.33
2023-01-19T08:06:34.536Z,18.45
2023-01-19T08:09:05.886Z,20.48
2023-01-19T08:11:35.402Z,19.40
2023-01-19T08:14:06.954Z,19.65
2023-01-19T08:16:38.619Z,18.88
2023-01-19T08:19:08.136Z,19.85
2023-01-19T08:21:38.933Z,18.17
2023-01-19T08:24:18.079Z,17.77
2023-01-19T08:26:47.683Z,16.60
2023-01-19T08:29:17.127Z,18.05
2023-01-19T08:31:48.031Z,16.83
2023-01-19T08:34:17.883Z,19.08
2023-01-19T08:36:47.475Z,19.65
2023-01-19T08:39:18.029Z,19.58
2023-01-19T08:41:47.249Z,18.45
2023-01-19T08:44:17.096Z,22.02
2023-01-19T08:46:47.872Z,21.40
2023-01-19T08:49:17.348Z,21.38
2023-01-19T08:51:47.503Z,22.88
2023-01-19T08:54:18.529Z,24.13
2023-01-19T08:56:48.032Z,21.95
2023-01-19T08:59:18.029Z,22.08
2023-01-19T09:01:49.379Z,20.67
2023-01-19T09:04:18.956Z,21.73
2023-01-19T09:06:48.375Z,21.23
2023-01-19T09:09:17.796Z,21.05
2023-01-19T09:11:46.882Z,19.67
2023-01-19T09:14:16.322Z,19.02
2023-01-19T09:16:45.507Z,20.60
2023-01-19T09:19:16.519Z,20.88
2023-01-19T09:21:45.801Z,22.80
2023-01-19T09:24:15.185Z,21.27
2023-01-19T09:26:44.605Z,22.98
2023-01-19T09:29:14.005Z,22.65
2023-01-19T09:31:44.142Z,21.25
2023-01-19T09:34:15.830Z,24.95
2023-01-19T09:36:45.097Z,25.13
2023-01-19T09:39:14.487Z,22.90
2023-01-19T09:41:50.963Z,24.50
2023-01-19T09:44:29.131Z,22.88
2023-01-19T09:46:58.870Z,25.90
2023-01-19T09:52:04.625Z,21.10
2023-01-19T09:54:43.075Z,22.48
2023-01-19T09:57:13.717Z,27.25
2023-01-19T09:59:47.804Z,27.27
2023-01-19T10:02:36.981Z,24.63
2023-01-19T10:05:24.694Z,22.25
2023-01-19T10:08:08.944Z,21.75
2023-01-19T10:10:42.360Z,20.38
2023-01-19T10:13:30.812Z,22.05
2023-01-19T10:16:18.782Z,24.02
2023-01-19T10:18:51.645Z,25.17
2023-01-19T10:21:26.108Z,21.70
2023-01-19T10:23:59.970Z,23.10
2023-01-19T10:26:36.342Z,23.67
2023-01-19T10:29:10.907Z,23.80
2023-01-19T10:31:43.520Z,24.05
2023-01-19T10:34:20.960Z,23.27
2023-01-19T10:37:00.142Z,23.60
2023-01-19T10:39:29.559Z,23.63
2023-01-19T10:42:03.635Z,22.38
2023-01-19T10:44:38.400Z,24.52
2023-01-19T10:47:16.164Z,22.67
2023-01-19T10:49:45.987Z,24.13
2023-01-19T10:54:55.489Z,22.45
2023-01-19T10:57:32.748Z,23.35
2023-01-19T11:00:02.444Z,22.13
2023-01-19T11:02:35.031Z,22.63
2023-01-19T11:05:24.615Z,23.45
2023-01-19T11:07:56.359Z,23.52
2023-01-19T11:10:27.476Z,24.33
2023-01-19T11:13:04.252Z,20.42
2023-01-19T11:15:45.097Z,25.13
2023-01-19T11:18:28.519Z,25.10
2023-01-19T11:21:01.065Z,22.60
2023-01-19T11:23:35.154Z,23.55
2023-01-19T11:26:07.489Z,23.17
2023-01-19T11:28:43.604Z,24.23
2023-01-19T11:31:31.262Z,22.05
2023-01-19T11:34:02.343Z,20.30
2023-01-19T11:36:33.645Z,20.27
2023-01-19T11:39:23.785Z,19.63
2023-01-19T11:41:56.339Z,18.25
2023-01-19T11:44:30.555Z,17.50
2023-01-19T11:47:03.686Z,17.70
2023-01-19T11:49:45.477Z,16.35
2023-01-19T11:52:27.099Z,18.48
2023-01-19T11:55:03.352Z,23.45
2023-01-19T11:57:47.199Z,21.88
2023-01-19T12:02:58.592Z,22.42
2023-01-19T12:05:33.071Z,20.95
2023-01-19T12:08:07.129Z,19.25
2023-01-19T12:10:43.714Z,17.95
2023-01-19T12:13:21.852Z,19.15
2023-01-19T12:15:57.904Z,15.95
2023-01-19T12:18:31.650Z,15.23
2023-01-19T12:21:03.924Z,13.90
2023-01-19T12:23:54.854Z,13.98
2023-01-19T12:26:38.386Z,15.35
2023-01-19T12:29:14.910Z,16.83
2023-01-19T12:31:44.546Z,16.08
2023-01-19T12:34:41.974Z,15.23
2023-01-19T12:37:33.270Z,14.90
2023-01-19T12:40:09.017Z,17.42
2023-01-19T12:42:47.726Z,13.45
2023-01-19T12:45:23.390Z,13.85
2023-01-19T12:47:53.700Z,12.50
2023-01-19T12:50:25.940Z,13.20
2023-01-19T12:52:58.697Z,14.40
2023-01-19T12:55:31.310Z,15.80
2023-01-19T12:58:05.953Z,17.17
2023-01-19T13:00:40.957Z,15.60
2023-01-19T13:03:46.366Z,13.77
2023-01-19T13:06:15.600Z,14.00
2023-01-19T13:09:01.949Z,13.85
2023-01-19T13:11:34.591Z,14.23
2023-01-19T13:14:36.783Z,13.65
2023-01-19T13:17:29.811Z,12.63
2023-01-19T13:20:35.089Z,16.02
2023-01-19T13:23:26.464Z,13.77
2023-01-19T13:26:03.788Z,14.52
2023-01-19T13:28:40.382Z,14.55
2023-01-19T13:31:13.037Z,14.27
2023-01-19T13:33:50.820Z,14.07
2023-01-19T13:36:26.330Z,14.65
2023-01-19T13:38:58.111Z,14.93
2023-01-19T13:41:30.912Z,15.00
2023-01-19T13:44:03.527Z,14.80
2023-01-19T13:46:35.129Z,16.80
2023-01-19T13:49:13.010Z,16.27
2023-01-19T13:51:42.593Z,16.40
2023-01-19T13:54:18.446Z,16.48
2023-01-19T13:56:51.201Z,15.23
2023-01-19T13:59:20.569Z,16.65
2023-01-19T14:01:53.371Z,16.30
2023-01-19T14:04:28.525Z,16.40
2023-01-19T14:07:01.833Z,18.17
2023-01-19T14:09:31.549Z,18.20
2023-01-19T14:12:12.108Z,19.13
2023-01-19T14:14:41.900Z,20.33
2023-01-19T14:20:04.082Z,24.45
2023-01-19T14:22:42.442Z,22.13
2023-01-19T14:25:31.613Z,18.92
2023-01-19T14:28:39.321Z,19.52
2023-01-19T14:31:22.753Z,16.73
2023-01-19T14:33:53.970Z,18.75
2023-01-19T14:36:39.328Z,19.08
2023-01-19T14:39:18.404Z,17.38
2023-01-19T14:41:52.414Z,19.98
2023-01-19T14:44:29.585Z,18.35
2023-01-19T14:46:59.808Z,19.17
2023-01-19T14:49:34.701Z,20.63
2023-01-19T14:52:08.999Z,20.10
2023-01-19T14:54:41.858Z,20.02
2023-01-19T14:57:13.967Z,21.60
2023-01-19T14:59:49.593Z,21.27
2023-01-19T15:02:19.824Z,23.20
2023-01-19T15:04:53.837Z,23.15
2023-01-19T15:07:26.542Z,23.35
2023-01-19T15:09:56.398Z,25.55
2023-01-19T15:12:29.351Z,24.38
2023-01-19T15:14:59.061Z,28.00
2023-01-19T15:17:28.398Z,25.67
2023-01-19T15:19:58.264Z,27.35
2023-01-19T15:22:30.055Z,31.58
2023-01-19T15:25:00.347Z,30.77
2023-01-19T15:27:31.623Z,28.45
2023-01-19T15:30:01.351Z,26.75
2023-01-19T15:32:30.530Z,28.33
2023-01-19T15:34:59.972Z,25.40
2023-01-19T15:37:30.628Z,31.48
2023-01-19T15:40:00.165Z,31.02
2023-01-19T15:42:29.245Z,31.58
2023-01-19T15:44:58.744Z,27.17
2023-01-19T15:47:28.094Z,27.02
2023-01-19T15:49:57.622Z,26.48
2023-01-19T15:52:26.761Z,29.27
2023-01-19T15:54:58.311Z,30.27
2023-01-19T15:57:27.684Z,31.35
2023-01-19T15:59:57.110Z,32.17
2023-01-19T16:02:26.230Z,33.38
2023-01-19T16:04:57.404Z,36.22
2023-01-19T16:07:26.721Z,36.63
2023-01-19T16:09:57.643Z,33.47
2023-01-19T16:12:27.375Z,34.17
2023-01-19T16:17:25.732Z,33.55
2023-01-19T16:19:55.151Z,36.83
2023-01-19T16:22:24.313Z,36.58
2023-01-19T16:24:56.573Z,36.67
2023-01-19T16:27:28.648Z,38.20
2023-01-19T16:30:00.216Z,39.05
2023-01-19T16:32:29.541Z,38.63
2023-01-19T16:34:58.927Z,40.00
2023-01-19T16:37:28.804Z,39.55
2023-01-19T16:39:58.226Z,40.47
2023-01-19T16:42:29.324Z,41.05
2023-01-19T16:44:58.824Z,42.80
2023-01-19T16:47:28.025Z,44.15
2023-01-19T16:49:57.733Z,42.53
2023-01-19T16:52:26.850Z,43.00
2023-01-19T16:54:56.290Z,48.92
2023-01-19T16:57:25.748Z,44.97
2023-01-19T16:59:56.813Z,48.42
2023-01-19T17:02:26.980Z,44.38
2023-01-19T17:04:56.506Z,45.45
2023-01-19T17:07:26.448Z,46.00
2023-01-19T17:09:56.183Z,39.97
2023-01-19T17:12:25.547Z,41.28
2023-01-19T17:14:56.288Z,39.03
2023-01-19T17:17:25.687Z,45.17
2023-01-19T17:19:55.245Z,43.40
2023-01-19T17:22:24.471Z,44.60
2023-01-19T17:24:54.431Z,44.70
2023-01-19T17:27:23.516Z,45.47
2023-01-19T17:29:52.971Z,48.55
2023-01-19T17:32:23.651Z,51.13
2023-01-19T17:34:53.327Z,51.30
2023-01-19T17:37:22.811Z,49.67
2023-01-19T17:39:52.428Z,50.95
2023-01-19T17:42:21.576Z,51.10
2023-01-19T17:47:24.673Z,48.65
2023-01-19T17:49:55.663Z,50.13
2023-01-19T17:52:25.367Z,52.72
2023-01-19T17:57:23.821Z,53.88
2023-01-19T17:59:53.229Z,54.45
2023-01-19T18:02:24.499Z,52.40
2023-01-19T18:04:56.630Z,56.45
2023-01-19T18:07:26.077Z,55.60
2023-01-19T18:09:58.586Z,56.03
2023-01-19T18:12:29.326Z,60.50
2023-01-19T18:14:58.880Z,58.10
2023-01-19T18:17:28.370Z,62.40
2023-01-19T18:20:00.728Z,61.13
2023-01-19T18:22:30.037Z,68.68
2023-01-19T18:24:59.537Z,72.38
2023-01-19T18:27:29.213Z,71.80
2023-01-19T18:32:27.997Z,67.10
2023-01-19T18:34:59.331Z,73.47
2023-01-19T18:37:29.207Z,71.00
2023-01-19T18:42:34.006Z,67.82
2023-01-19T18:45:03.540Z,67.95
2023-01-19T18:47:35.242Z,66.15
2023-01-19T18:50:06.740Z,58.50
2023-01-19T18:52:40.963Z,54.80
2023-01-19T18:57:45.861Z,50.47
2023-01-19T19:00:15.985Z,50.13
2023-01-19T19:02:46.182Z,49.92
2023-01-19T19:05:17.247Z,48.40
2023-01-19T19:07:47.134Z,50.92
2023-01-19T19:10:17.390Z,56.22
2023-01-19T19:12:51.553Z,51.92
2023-01-19T19:15:21.174Z,54.65
2023-01-19T19:17:50.443Z,55.88
2023-01-19T19:20:23.313Z,50.67
2023-01-19T19:22:53.490Z,51.47
2023-01-19T19:25:23.450Z,52.92
2023-01-19T19:27:53.567Z,54.33
2023-01-19T19:30:23.142Z,55.70
2023-01-19T19:32:56.095Z,59.15
2023-01-19T19:35:30.739Z,59.00
2023-01-19T19:38:01.135Z,58.03
2023-01-19T19:40:30.606Z,53.40
2023-01-19T19:43:01.087Z,56.53
2023-01-19T19:45:30.616Z,55.35
2023-01-19T19:48:00.084Z,58.65
2023-01-19T19:50:30.993Z,50.97
2023-01-19T19:53:00.934Z,53.08
2023-01-19T19:57:59.267Z,48.20
2023-01-19T20:00:29.547Z,52.90
2023-01-19T20:05:31.401Z,49.72
2023-01-19T20:08:00.851Z,52.53
2023-01-19T20:12:59.709Z,48.30
2023-01-19T20:15:29.352Z,52.55
2023-01-19T20:18:13.728Z,48.97
2023-01-19T20:20:44.931Z,46.72
2023-01-19T20:23:14.883Z,50.78
2023-01-19T20:25:44.375Z,52.33
2023-01-19T20:28:13.636Z,49.38
2023-01-19T20:30:43.348Z,49.15
2023-01-19T20:33:12.737Z,49.20
2023-01-19T20:35:44.188Z,47.78
2023-01-19T20:38:13.646Z,50.08
2023-01-19T20:40:43.259Z,46.42
2023-01-19T20:43:12.499Z,45.35
2023-01-19T20:45:41.998Z,45.58
2023-01-19T20:48:14.515Z,45.40
2023-01-19T20:50:47.007Z,49.45
2023-01-19T20:53:16.375Z,47.88
2023-01-19T20:55:46.533Z,49.97
2023-01-19T20:58:15.850Z,49.85
2023-01-19T21:00:46.181Z,43.67
2023-01-19T21:03:15.502Z,46.22
2023-01-19T21:05:48.457Z,48.40
2023-01-19T21:08:18.597Z,49.97
2023-01-19T21:10:49.001Z,51.22
2023-01-19T21:13:18.283Z,50.80
2023-01-19T21:15:47.855Z,43.05
2023-01-19T21:18:17.313Z,41.33
2023-01-19T21:20:49.337Z,36.80
2023-01-19T21:23:19.955Z,36.65
2023-01-19T21:25:52.790Z,31.15
2023-01-19T21:28:23.091Z,29.50
2023-01-19T21:30:53.207Z,26.63
2023-01-19T21:33:23.501Z,28.55
2023-01-19T21:35:56.329Z,22.95
2023-01-19T21:38:28.062Z,26.23
2023-01-19T21:40:59.700Z,25.67
2023-01-19T21:43:29.825Z,25.05
2023-01-19T21:46:10.879Z,23.42
2023-01-19T21:48:40.649Z,26.60
2023-01-19T21:51:12.176Z,26.33
2023-01-19T21:53:42.088Z,28.75
2023-01-19T21:56:12.763Z,28.80
2023-01-19T21:58:42.749Z,26.63
2023-01-19T22:01:13.719Z,29.88
2023-01-19T22:03:43.803Z,32.10
2023-01-19T22:06:15.942Z,26.88
2023-01-19T22:08:46.672Z,23.38
2023-01-19T22:11:18.821Z,25.85
2023-01-19T22:13:48.569Z,23.63
2023-01-19T22:16:20.468Z,20.40
2023-01-19T22:18:54.102Z,19.42
2023-01-19T22:21:29.043Z,22.85
2023-01-19T22:24:00.568Z,21.90
2023-01-19T22:26:31.149Z,22.58
2023-01-19T22:29:02.833Z,19.33
2023-01-19T22:31:32.727Z,20.88
2023-01-19T22:34:01.997Z,23.50
2023-01-19T22:36:34.573Z,20.58
2023-01-19T22:39:05.832Z,18.50
2023-01-19T22:41:37.876Z,20.20
2023-01-19T22:44:11.336Z,21.02
2023-01-19T22:46:41.013Z,15.18
2023-01-19T22:49:12.068Z,17.45
2023-01-19T22:51:43.705Z,18.85
2023-01-19T22:54:13.313Z,20.52
2023-01-19T22:59:11.998Z,17.50
2023-01-19T23:01:43.442Z,12.10
2023-01-19T23:04:15.748Z,15.60
2023-01-19T23:06:50.485Z,17.17
2023-01-19T23:09:20.275Z,16.73
2023-01-19T23:11:51.231Z,16.60
2023-01-19T23:14:22.889Z,15.07
2023-01-19T23:16:52.567Z,16.25
2023-01-19T23:19:21.694Z,14.98
2023-01-19T23:21:53.882Z,15.00
2023-01-19T23:24:23.040Z,15.05
2023-01-19T23:26:52.668Z,16.38
2023-01-19T23:29:21.893Z,14.07
2023-01-19T23:31:53.583Z,13.40
2023-01-19T23:34:22.854Z,15.32
2023-01-19T23:36:53.826Z,15.05
2023-01-19T23:39:23.959Z,15.18
2023-01-19T23:41:54.160Z,14.25
2023-01-19T23:44:23.436Z,13.07
2023-01-19T23:46:52.868Z,13.07
2023-01-19T23:49:22.014Z,14.10
2023-01-19T23:51:52.869Z,13.32
2023-01-19T23:54:22.165Z,14.10
2023-01-19T23:56:52.025Z,12.43
2023-01-19T23:59:21.249Z,14.77
